sensor_id;sensor_type;location;lat;lon;timestamp;P1;durP1;ratioP1;P2;durP2;ratioP2
16760;SDS011;8498;52.516;13.790;2024-02-14T00:05:19;7.77;;;4.77;;
16760;SDS011;8498;52.516;13.790;2024-02-14T00:10:41;7.80;;;4.90;;
16760;SDS011;8498;52.516;13.790;2024-02-14T00:16:06;9.50;;;4.73;;
16760;SDS011;8498;52.516;13.790;2024-02-14T00:21:29;9.83;;;4.90;;
16760;SDS011;8498;52.516;13.790;2024-02-14T00:26:51;8.07;;;4.57;;
16760;SDS011;8498;52.516;13.790;2024-02-14T00:32:13;8.27;;;4.50;;
16760;SDS011;8498;52.516;13.790;2024-02-14T00:37:36;9.47;;;5.17;;
16760;SDS011;8498;52.516;13.790;2024-02-14T00:42:59;9.60;;;5.37;;
16760;SDS011;8498;52.516;13.790;2024-02-14T00:48:21;11.20;;;5.50;;
16760;SDS011;8498;52.516;13.790;2024-02-14T00:53:44;9.27;;;4.77;;
16760;SDS011;8498;52.516;13.790;2024-02-14T00:59:06;11.47;;;5.10;;
16760;SDS011;8498;52.516;13.790;2024-02-14T01:04:29;9.93;;;5.10;;
16760;SDS011;8498;52.516;13.790;2024-02-14T01:09:52;8.33;;;5.07;;
16760;SDS011;8498;52.516;13.790;2024-02-14T01:15:14;10.10;;;5.13;;
16760;SDS011;8498;52.516;13.790;2024-02-14T01:20:36;13.57;;;5.33;;
16760;SDS011;8498;52.516;13.790;2024-02-14T01:25:59;8.40;;;4.53;;
16760;SDS011;8498;52.516;13.790;2024-02-14T01:31:21;6.53;;;4.27;;
16760;SDS011;8498;52.516;13.790;2024-02-14T01:36:44;8.20;;;4.63;;
16760;SDS011;8498;52.516;13.790;2024-02-14T01:49:59;8.73;;;4.87;;
16760;SDS011;8498;52.516;13.790;2024-02-14T01:55:22;6.23;;;4.60;;
16760;SDS011;8498;52.516;13.790;2024-02-14T02:00:49;10.00;;;5.33;;
16760;SDS011;8498;52.516;13.790;2024-02-14T02:06:17;9.20;;;4.63;;
16760;SDS011;8498;52.516;13.790;2024-02-14T02:11:46;6.37;;;4.00;;
16760;SDS011;8498;52.516;13.790;2024-02-14T02:17:10;10.70;;;4.93;;
16760;SDS011;8498;52.516;13.790;2024-02-14T02:22:33;7.90;;;4.87;;
16760;SDS011;8498;52.516;13.790;2024-02-14T02:27:57;7.97;;;4.87;;
16760;SDS011;8498;52.516;13.790;2024-02-14T02:33:19;12.57;;;5.53;;
16760;SDS011;8498;52.516;13.790;2024-02-14T02:38:43;11.77;;;5.57;;
16760;SDS011;8498;52.516;13.790;2024-02-14T02:44:06;9.83;;;5.17;;
16760;SDS011;8498;52.516;13.790;2024-02-14T02:49:28;9.20;;;5.30;;
16760;SDS011;8498;52.516;13.790;2024-02-14T02:54:50;7.27;;;5.10;;
16760;SDS011;8498;52.516;13.790;2024-02-14T03:00:14;9.33;;;5.23;;
16760;SDS011;8498;52.516;13.790;2024-02-14T03:05:37;10.13;;;5.70;;
16760;SDS011;8498;52.516;13.790;2024-02-14T03:11:07;13.17;;;5.47;;
16760;SDS011;8498;52.516;13.790;2024-02-14T03:16:29;5.60;;;4.53;;
16760;SDS011;8498;52.516;13.790;2024-02-14T03:21:51;10.73;;;5.70;;
16760;SDS011;8498;52.516;13.790;2024-02-14T03:27:13;8.13;;;4.40;;
16760;SDS011;8498;52.516;13.790;2024-02-14T03:32:36;8.83;;;5.30;;
16760;SDS011;8498;52.516;13.790;2024-02-14T03:37:59;8.20;;;5.13;;
16760;SDS011;8498;52.516;13.790;2024-02-14T03:43:23;16.20;;;5.27;;
16760;SDS011;8498;52.516;13.790;2024-02-14T03:48:49;8.03;;;5.13;;
16760;SDS011;8498;52.516;13.790;2024-02-14T03:54:12;10.33;;;5.77;;
16760;SDS011;8498;52.516;13.790;2024-02-14T03:59:37;11.27;;;5.40;;
16760;SDS011;8498;52.516;13.790;2024-02-14T04:05:01;15.43;;;5.33;;
16760;SDS011;8498;52.516;13.790;2024-02-14T04:10:24;7.33;;;5.20;;
16760;SDS011;8498;52.516;13.790;2024-02-14T04:15:46;9.83;;;6.00;;
16760;SDS011;8498;52.516;13.790;2024-02-14T04:21:08;13.80;;;5.77;;
16760;SDS011;8498;52.516;13.790;2024-02-14T04:26:31;9.47;;;4.60;;
16760;SDS011;8498;52.516;13.790;2024-02-14T04:31:53;10.03;;;5.50;;
16760;SDS011;8498;52.516;13.790;2024-02-14T04:37:15;9.17;;;5.20;;
16760;SDS011;8498;52.516;13.790;2024-02-14T04:42:43;8.63;;;5.17;;
16760;SDS011;8498;52.516;13.790;2024-02-14T04:48:05;11.50;;;5.43;;
16760;SDS011;8498;52.516;13.790;2024-02-14T04:53:30;10.83;;;5.23;;
16760;SDS011;8498;52.516;13.790;2024-02-14T04:58:53;10.13;;;5.03;;
16760;SDS011;8498;52.516;13.790;2024-02-14T05:04:17;10.43;;;5.20;;
16760;SDS011;8498;52.516;13.790;2024-02-14T05:09:39;11.43;;;5.27;;
16760;SDS011;8498;52.516;13.790;2024-02-14T05:15:02;9.97;;;5.70;;
16760;SDS011;8498;52.516;13.790;2024-02-14T05:20:26;14.30;;;5.30;;
16760;SDS011;8498;52.516;13.790;2024-02-14T05:25:48;9.87;;;4.83;;
16760;SDS011;8498;52.516;13.790;2024-02-14T05:31:12;14.00;;;5.10;;
16760;SDS011;8498;52.516;13.790;2024-02-14T05:42:22;11.47;;;5.10;;
16760;SDS011;8498;52.516;13.790;2024-02-14T05:47:44;11.47;;;5.27;;
16760;SDS011;8498;52.516;13.790;2024-02-14T05:53:06;10.53;;;5.70;;
16760;SDS011;8498;52.516;13.790;2024-02-14T05:58:29;10.33;;;5.30;;
16760;SDS011;8498;52.516;13.790;2024-02-14T06:03:51;9.03;;;5.10;;
16760;SDS011;8498;52.516;13.790;2024-02-14T06:09:13;7.70;;;4.60;;
16760;SDS011;8498;52.516;13.790;2024-02-14T06:14:36;13.67;;;6.10;;
16760;SDS011;8498;52.516;13.790;2024-02-14T06:19:58;10.27;;;5.47;;
16760;SDS011;8498;52.516;13.790;2024-02-14T06:25:20;10.23;;;5.17;;
16760;SDS011;8498;52.516;13.790;2024-02-14T06:30:43;9.67;;;4.90;;
16760;SDS011;8498;52.516;13.790;2024-02-14T06:36:04;11.23;;;5.40;;
16760;SDS011;8498;52.516;13.790;2024-02-14T06:41:26;11.60;;;5.00;;
16760;SDS011;8498;52.516;13.790;2024-02-14T06:46:49;15.93;;;5.13;;
16760;SDS011;8498;52.516;13.790;2024-02-14T06:52:11;11.33;;;5.60;;
16760;SDS011;8498;52.516;13.790;2024-02-14T06:57:34;7.63;;;4.67;;
16760;SDS011;8498;52.516;13.790;2024-02-14T07:02:56;8.13;;;4.70;;
16760;SDS011;8498;52.516;13.790;2024-02-14T07:08:18;8.80;;;4.97;;
16760;SDS011;8498;52.516;13.790;2024-02-14T07:13:40;5.37;;;4.20;;
16760;SDS011;8498;52.516;13.790;2024-02-14T07:19:02;7.83;;;5.27;;
16760;SDS011;8498;52.516;13.790;2024-02-14T07:24:25;13.90;;;4.83;;
16760;SDS011;8498;52.516;13.790;2024-02-14T07:29:48;7.10;;;4.30;;
16760;SDS011;8498;52.516;13.790;2024-02-14T07:35:11;8.33;;;5.20;;
16760;SDS011;8498;52.516;13.790;2024-02-14T07:40:35;8.50;;;4.60;;
16760;SDS011;8498;52.516;13.790;2024-02-14T07:45:57;6.10;;;3.87;;
16760;SDS011;8498;52.516;13.790;2024-02-14T07:51:20;6.83;;;4.60;;
16760;SDS011;8498;52.516;13.790;2024-02-14T07:56:43;7.90;;;4.17;;
16760;SDS011;8498;52.516;13.790;2024-02-14T08:02:05;8.77;;;4.50;;
16760;SDS011;8498;52.516;13.790;2024-02-14T08:07:27;11.17;;;4.47;;
16760;SDS011;8498;52.516;13.790;2024-02-14T08:12:50;8.80;;;4.07;;
16760;SDS011;8498;52.516;13.790;2024-02-14T08:18:12;8.60;;;4.23;;
16760;SDS011;8498;52.516;13.790;2024-02-14T08:23:34;4.87;;;3.60;;
16760;SDS011;8498;52.516;13.790;2024-02-14T08:28:57;5.00;;;3.53;;
16760;SDS011;8498;52.516;13.790;2024-02-14T08:34:20;8.77;;;3.93;;
16760;SDS011;8498;52.516;13.790;2024-02-14T08:39:42;7.43;;;3.83;;
16760;SDS011;8498;52.516;13.790;2024-02-14T08:45:05;7.10;;;3.77;;
16760;SDS011;8498;52.516;13.790;2024-02-14T08:50:28;7.23;;;3.47;;
16760;SDS011;8498;52.516;13.790;2024-02-14T08:55:52;5.07;;;3.73;;
16760;SDS011;8498;52.516;13.790;2024-02-14T09:01:14;5.73;;;3.63;;
16760;SDS011;8498;52.516;13.790;2024-02-14T09:06:37;11.67;;;5.23;;
16760;SDS011;8498;52.516;13.790;2024-02-14T09:12:01;7.53;;;4.73;;
16760;SDS011;8498;52.516;13.790;2024-02-14T09:17:24;8.97;;;4.67;;
16760;SDS011;8498;52.516;13.790;2024-02-14T09:22:47;5.07;;;3.30;;
16760;SDS011;8498;52.516;13.790;2024-02-14T09:28:09;3.87;;;3.13;;
16760;SDS011;8498;52.516;13.790;2024-02-14T09:33:31;10.40;;;5.70;;
16760;SDS011;8498;52.516;13.790;2024-02-14T09:38:53;7.73;;;3.60;;
16760;SDS011;8498;52.516;13.790;2024-02-14T09:44:16;4.47;;;3.70;;
16760;SDS011;8498;52.516;13.790;2024-02-14T09:49:39;5.17;;;3.20;;
16760;SDS011;8498;52.516;13.790;2024-02-14T09:55:02;4.20;;;2.93;;
16760;SDS011;8498;52.516;13.790;2024-02-14T10:00:26;7.50;;;3.13;;
16760;SDS011;8498;52.516;13.790;2024-02-14T10:05:49;7.00;;;3.00;;
16760;SDS011;8498;52.516;13.790;2024-02-14T10:11:13;4.50;;;2.83;;
16760;SDS011;8498;52.516;13.790;2024-02-14T10:16:37;4.00;;;3.23;;
16760;SDS011;8498;52.516;13.790;2024-02-14T10:21:59;4.97;;;2.60;;
16760;SDS011;8498;52.516;13.790;2024-02-14T10:27:23;6.53;;;2.70;;
16760;SDS011;8498;52.516;13.790;2024-02-14T10:32:47;4.07;;;2.97;;
16760;SDS011;8498;52.516;13.790;2024-02-14T10:38:10;2.80;;;2.47;;
16760;SDS011;8498;52.516;13.790;2024-02-14T10:43:33;3.73;;;2.80;;
16760;SDS011;8498;52.516;13.790;2024-02-14T10:48:58;4.43;;;3.07;;
16760;SDS011;8498;52.516;13.790;2024-02-14T10:54:24;3.20;;;2.50;;
16760;SDS011;8498;52.516;13.790;2024-02-14T10:59:47;6.03;;;3.07;;
16760;SDS011;8498;52.516;13.790;2024-02-14T11:05:11;7.40;;;3.20;;
16760;SDS011;8498;52.516;13.790;2024-02-14T11:10:37;3.87;;;3.07;;
16760;SDS011;8498;52.516;13.790;2024-02-14T11:16:00;3.83;;;2.83;;
16760;SDS011;8498;52.516;13.790;2024-02-14T11:21:27;8.43;;;3.10;;
16760;SDS011;8498;52.516;13.790;2024-02-14T11:26:51;5.13;;;3.03;;
16760;SDS011;8498;52.516;13.790;2024-02-14T11:32:14;5.30;;;3.03;;
16760;SDS011;8498;52.516;13.790;2024-02-14T11:37:40;5.67;;;3.00;;
16760;SDS011;8498;52.516;13.790;2024-02-14T11:43:03;3.40;;;2.77;;
16760;SDS011;8498;52.516;13.790;2024-02-14T11:48:26;4.33;;;2.63;;
16760;SDS011;8498;52.516;13.790;2024-02-14T11:53:50;2.87;;;2.60;;
16760;SDS011;8498;52.516;13.790;2024-02-14T11:59:13;5.97;;;2.83;;
16760;SDS011;8498;52.516;13.790;2024-02-14T12:04:37;4.97;;;2.50;;
16760;SDS011;8498;52.516;13.790;2024-02-14T12:10:00;4.00;;;2.73;;
16760;SDS011;8498;52.516;13.790;2024-02-14T12:15:22;2.87;;;2.67;;
16760;SDS011;8498;52.516;13.790;2024-02-14T12:20:45;2.60;;;2.40;;
16760;SDS011;8498;52.516;13.790;2024-02-14T12:26:07;27.83;;;8.77;;
16760;SDS011;8498;52.516;13.790;2024-02-14T12:31:36;4.00;;;3.20;;
16760;SDS011;8498;52.516;13.790;2024-02-14T12:36:59;4.03;;;3.20;;
16760;SDS011;8498;52.516;13.790;2024-02-14T12:42:21;3.83;;;3.00;;
16760;SDS011;8498;52.516;13.790;2024-02-14T12:47:47;4.77;;;3.13;;
16760;SDS011;8498;52.516;13.790;2024-02-14T12:53:09;7.00;;;3.20;;
16760;SDS011;8498;52.516;13.790;2024-02-14T12:58:32;7.80;;;3.13;;
16760;SDS011;8498;52.516;13.790;2024-02-14T13:03:54;5.43;;;2.97;;
16760;SDS011;8498;52.516;13.790;2024-02-14T13:09:16;4.70;;;3.20;;
16760;SDS011;8498;52.516;13.790;2024-02-14T13:14:39;8.77;;;3.90;;
16760;SDS011;8498;52.516;13.790;2024-02-14T13:20:02;5.67;;;3.23;;
16760;SDS011;8498;52.516;13.790;2024-02-14T13:25:25;5.30;;;2.97;;
16760;SDS011;8498;52.516;13.790;2024-02-14T13:30:47;3.67;;;3.23;;
16760;SDS011;8498;52.516;13.790;2024-02-14T13:36:09;8.73;;;3.40;;
16760;SDS011;8498;52.516;13.790;2024-02-14T13:41:32;8.00;;;3.97;;
16760;SDS011;8498;52.516;13.790;2024-02-14T13:46:54;4.20;;;3.07;;
16760;SDS011;8498;52.516;13.790;2024-02-14T13:52:16;5.77;;;3.30;;
16760;SDS011;8498;52.516;13.790;2024-02-14T13:57:39;7.90;;;3.97;;
16760;SDS011;8498;52.516;13.790;2024-02-14T14:03:02;8.20;;;3.83;;
16760;SDS011;8498;52.516;13.790;2024-02-14T14:08:24;5.03;;;3.27;;
16760;SDS011;8498;52.516;13.790;2024-02-14T14:13:46;6.67;;;3.87;;
16760;SDS011;8498;52.516;13.790;2024-02-14T14:19:08;9.30;;;4.30;;
16760;SDS011;8498;52.516;13.790;2024-02-14T14:24:31;8.10;;;4.23;;
16760;SDS011;8498;52.516;13.790;2024-02-14T14:29:53;6.67;;;4.40;;
16760;SDS011;8498;52.516;13.790;2024-02-14T14:35:15;5.07;;;4.33;;
16760;SDS011;8498;52.516;13.790;2024-02-14T14:40:38;7.60;;;3.97;;
16760;SDS011;8498;52.516;13.790;2024-02-14T14:46:00;4.30;;;3.80;;
16760;SDS011;8498;52.516;13.790;2024-02-14T14:51:23;6.30;;;4.10;;
16760;SDS011;8498;52.516;13.790;2024-02-14T14:56:45;6.63;;;4.57;;
16760;SDS011;8498;52.516;13.790;2024-02-14T15:02:08;7.40;;;4.53;;
16760;SDS011;8498;52.516;13.790;2024-02-14T15:07:30;7.03;;;4.70;;
16760;SDS011;8498;52.516;13.790;2024-02-14T15:12:52;7.97;;;5.00;;
16760;SDS011;8498;52.516;13.790;2024-02-14T15:18:15;9.07;;;4.37;;
16760;SDS011;8498;52.516;13.790;2024-02-14T15:23:37;6.57;;;4.60;;
16760;SDS011;8498;52.516;13.790;2024-02-14T15:28:59;10.17;;;5.37;;
16760;SDS011;8498;52.516;13.790;2024-02-14T15:34:40;9.83;;;4.97;;
16760;SDS011;8498;52.516;13.790;2024-02-14T15:40:03;8.37;;;5.30;;
16760;SDS011;8498;52.516;13.790;2024-02-14T15:45:28;8.83;;;4.70;;
16760;SDS011;8498;52.516;13.790;2024-02-14T15:50:50;6.50;;;4.40;;
16760;SDS011;8498;52.516;13.790;2024-02-14T15:56:13;7.87;;;4.90;;
16760;SDS011;8498;52.516;13.790;2024-02-14T16:01:36;8.93;;;4.90;;
16760;SDS011;8498;52.516;13.790;2024-02-14T16:06:59;8.40;;;4.77;;
16760;SDS011;8498;52.516;13.790;2024-02-14T16:12:22;5.70;;;4.47;;
16760;SDS011;8498;52.516;13.790;2024-02-14T16:17:45;6.97;;;4.80;;
16760;SDS011;8498;52.516;13.790;2024-02-14T16:23:08;7.47;;;4.53;;
16760;SDS011;8498;52.516;13.790;2024-02-14T16:28:30;8.57;;;4.83;;
16760;SDS011;8498;52.516;13.790;2024-02-14T16:33:52;7.07;;;4.20;;
16760;SDS011;8498;52.516;13.790;2024-02-14T16:39:15;8.10;;;4.67;;
16760;SDS011;8498;52.516;13.790;2024-02-14T16:44:56;8.80;;;4.97;;
16760;SDS011;8498;52.516;13.790;2024-02-14T16:50:18;9.40;;;4.87;;
16760;SDS011;8498;52.516;13.790;2024-02-14T16:55:40;7.13;;;5.53;;
16760;SDS011;8498;52.516;13.790;2024-02-14T17:01:02;12.67;;;6.50;;
16760;SDS011;8498;52.516;13.790;2024-02-14T17:06:25;10.73;;;5.83;;
16760;SDS011;8498;52.516;13.790;2024-02-14T17:11:48;10.67;;;5.73;;
16760;SDS011;8498;52.516;13.790;2024-02-14T17:17:10;10.17;;;5.43;;
16760;SDS011;8498;52.516;13.790;2024-02-14T17:22:32;11.90;;;8.00;;
16760;SDS011;8498;52.516;13.790;2024-02-14T17:27:54;10.53;;;5.63;;
16760;SDS011;8498;52.516;13.790;2024-02-14T17:33:16;8.90;;;6.03;;
16760;SDS011;8498;52.516;13.790;2024-02-14T17:38:39;10.17;;;5.40;;
16760;SDS011;8498;52.516;13.790;2024-02-14T17:44:01;8.60;;;5.00;;
16760;SDS011;8498;52.516;13.790;2024-02-14T17:49:24;10.50;;;6.07;;
16760;SDS011;8498;52.516;13.790;2024-02-14T17:54:47;11.13;;;7.13;;
16760;SDS011;8498;52.516;13.790;2024-02-14T18:00:09;22.73;;;10.83;;
16760;SDS011;8498;52.516;13.790;2024-02-14T18:05:34;19.43;;;9.33;;
16760;SDS011;8498;52.516;13.790;2024-02-14T18:10:58;11.50;;;6.87;;
16760;SDS011;8498;52.516;13.790;2024-02-14T18:16:21;12.87;;;6.47;;
16760;SDS011;8498;52.516;13.790;2024-02-14T18:21:42;9.50;;;5.40;;
16760;SDS011;8498;52.516;13.790;2024-02-14T18:27:05;11.30;;;4.77;;
16760;SDS011;8498;52.516;13.790;2024-02-14T18:32:27;10.13;;;4.77;;
16760;SDS011;8498;52.516;13.790;2024-02-14T18:37:49;6.30;;;4.40;;
16760;SDS011;8498;52.516;13.790;2024-02-14T18:43:12;9.17;;;4.70;;
16760;SDS011;8498;52.516;13.790;2024-02-14T18:48:34;5.90;;;4.30;;
16760;SDS011;8498;52.516;13.790;2024-02-14T18:53:59;6.13;;;3.90;;
16760;SDS011;8498;52.516;13.790;2024-02-14T18:59:21;5.30;;;3.80;;
16760;SDS011;8498;52.516;13.790;2024-02-14T19:04:44;5.83;;;3.80;;
16760;SDS011;8498;52.516;13.790;2024-02-14T19:10:06;5.10;;;3.70;;
16760;SDS011;8498;52.516;13.790;2024-02-14T19:15:28;4.00;;;3.60;;
16760;SDS011;8498;52.516;13.790;2024-02-14T19:20:51;6.30;;;3.83;;
16760;SDS011;8498;52.516;13.790;2024-02-14T19:26:14;4.53;;;3.60;;
16760;SDS011;8498;52.516;13.790;2024-02-14T19:31:36;4.97;;;4.00;;
16760;SDS011;8498;52.516;13.790;2024-02-14T19:36:58;4.10;;;3.20;;
16760;SDS011;8498;52.516;13.790;2024-02-14T19:42:20;6.97;;;4.27;;
16760;SDS011;8498;52.516;13.790;2024-02-14T19:47:42;5.90;;;4.00;;
16760;SDS011;8498;52.516;13.790;2024-02-14T19:53:05;6.70;;;4.30;;
16760;SDS011;8498;52.516;13.790;2024-02-14T19:58:27;4.30;;;3.70;;
16760;SDS011;8498;52.516;13.790;2024-02-14T20:03:49;5.30;;;3.80;;
16760;SDS011;8498;52.516;13.790;2024-02-14T20:09:11;4.80;;;4.00;;
16760;SDS011;8498;52.516;13.790;2024-02-14T20:14:34;7.07;;;3.77;;
16760;SDS011;8498;52.516;13.790;2024-02-14T20:19:56;6.30;;;4.00;;
16760;SDS011;8498;52.516;13.790;2024-02-14T20:25:18;6.07;;;3.97;;
16760;SDS011;8498;52.516;13.790;2024-02-14T20:30:43;5.63;;;3.83;;
16760;SDS011;8498;52.516;13.790;2024-02-14T20:36:05;4.57;;;3.57;;
16760;SDS011;8498;52.516;13.790;2024-02-14T20:41:30;4.60;;;3.83;;
16760;SDS011;8498;52.516;13.790;2024-02-14T20:46:52;4.57;;;3.20;;
16760;SDS011;8498;52.516;13.790;2024-02-14T20:52:15;5.27;;;3.70;;
16760;SDS011;8498;52.516;13.790;2024-02-14T20:57:37;7.13;;;4.10;;
16760;SDS011;8498;52.516;13.790;2024-02-14T21:02:59;4.07;;;3.47;;
16760;SDS011;8498;52.516;13.790;2024-02-14T21:08:21;3.80;;;3.40;;
16760;SDS011;8498;52.516;13.790;2024-02-14T21:13:44;3.83;;;3.43;;
16760;SDS011;8498;52.516;13.790;2024-02-14T21:19:05;3.87;;;3.27;;
16760;SDS011;8498;52.516;13.790;2024-02-14T21:24:28;4.50;;;3.50;;
16760;SDS011;8498;52.516;13.790;2024-02-14T21:29:50;5.57;;;3.03;;
16760;SDS011;8498;52.516;13.790;2024-02-14T21:35:13;3.70;;;3.40;;
16760;SDS011;8498;52.516;13.790;2024-02-14T21:40:36;4.53;;;3.03;;
16760;SDS011;8498;52.516;13.790;2024-02-14T21:45:58;3.10;;;2.80;;
16760;SDS011;8498;52.516;13.790;2024-02-14T21:51:21;3.37;;;2.90;;
16760;SDS011;8498;52.516;13.790;2024-02-14T21:56:43;7.57;;;3.33;;
16760;SDS011;8498;52.516;13.790;2024-02-14T22:02:06;6.87;;;3.10;;
16760;SDS011;8498;52.516;13.790;2024-02-14T22:07:28;5.30;;;2.90;;
16760;SDS011;8498;52.516;13.790;2024-02-14T22:12:50;4.67;;;3.33;;
16760;SDS011;8498;52.516;13.790;2024-02-14T22:18:13;3.67;;;3.10;;
16760;SDS011;8498;52.516;13.790;2024-02-14T22:23:35;5.07;;;3.27;;
16760;SDS011;8498;52.516;13.790;2024-02-14T22:28:58;4.43;;;3.10;;
16760;SDS011;8498;52.516;13.790;2024-02-14T22:34:20;4.60;;;3.70;;
16760;SDS011;8498;52.516;13.790;2024-02-14T22:39:43;4.53;;;3.80;;
16760;SDS011;8498;52.516;13.790;2024-02-14T22:45:05;4.50;;;3.90;;
16760;SDS011;8498;52.516;13.790;2024-02-14T22:50:28;4.97;;;3.77;;
16760;SDS011;8498;52.516;13.790;2024-02-14T22:55:50;6.73;;;3.73;;
16760;SDS011;8498;52.516;13.790;2024-02-14T23:01:12;4.60;;;3.63;;
16760;SDS011;8498;52.516;13.790;2024-02-14T23:06:34;8.20;;;4.13;;
16760;SDS011;8498;52.516;13.790;2024-02-14T23:11:59;7.13;;;4.60;;
16760;SDS011;8498;52.516;13.790;2024-02-14T23:17:21;7.23;;;5.07;;
16760;SDS011;8498;52.516;13.790;2024-02-14T23:22:43;8.30;;;4.37;;
16760;SDS011;8498;52.516;13.790;2024-02-14T23:28:05;5.30;;;4.43;;
16760;SDS011;8498;52.516;13.790;2024-02-14T23:33:27;8.73;;;5.10;;
16760;SDS011;8498;52.516;13.790;2024-02-14T23:38:50;10.53;;;5.43;;
16760;SDS011;8498;52.516;13.790;2024-02-14T23:44:13;12.03;;;5.60;;
16760;SDS011;8498;52.516;13.790;2024-02-14T23:49:36;13.10;;;5.47;;
16760;SDS011;8498;52.516;13.790;2024-02-14T23:55:00;7.57;;;5.57;;
